Time;durP1;ratioP1;P1;durP2;ratioP2;P2;SDS_P1;SDS_P2;PMS_P1;PMS_P2;Temp;Humidity;BMP_temperature;BMP_pressure;BME280_temperature;BME280_humidity;BME280_pressure;Samples;Min_cycle;Max_cycle;Signal;HPM_P1;HPM_P2
2021/03/15 00:00:45;;;;;;;22.67;6.70;;;;;;;13.30;61.49;101346.59;5088874;28;20048;-66
2021/03/15 00:03:13;;;;;;;15.00;6.20;;;;;;;13.54;61.68;101401.06;5083392;28;20129;-69
2021/03/15 00:05:54;;;;;;;12.80;5.67;;;;;;;13.43;61.59;101391.78;5083832;28;20052;-66
2021/03/15 00:08:21;;;;;;;12.00;4.83;;;;;;;13.56;61.04;101397.97;5076791;28;20048;-66
2021/03/15 00:10:47;;;;;;;8.37;3.97;;;;;;;13.56;60.67;101392.38;5089922;28;20047;-70
2021/03/15 00:13:14;;;;;;;7.97;4.37;;;;;;;13.43;60.20;101369.34;5087076;28;20044;-72
2021/03/15 00:15:42;;;;;;;9.87;4.43;;;;;;;13.71;59.89;101392.38;5083812;28;20059;-70
2021/03/15 00:18:09;;;;;;;7.93;4.37;;;;;;;13.72;59.25;101388.44;5081663;28;20488;-73
2021/03/15 00:20:36;;;;;;;8.07;4.80;;;;;;;13.79;58.96;101389.00;5086062;28;20407;-74
2021/03/15 00:23:02;;;;;;;9.27;5.30;;;;;;;13.88;58.70;101380.84;5087569;28;20130;-72
2021/03/15 00:25:29;;;;;;;5.10;3.57;;;;;;;14.01;58.30;101396.25;5087816;28;20412;-75
2021/03/15 00:27:55;;;;;;;9.83;5.27;;;;;;;13.98;58.25;101378.88;5082081;28;20044;-68
2021/03/15 00:30:22;;;;;;;6.63;3.97;;;;;;;13.76;58.01;101350.25;5080720;28;20044;-69
2021/03/15 00:32:49;;;;;;;10.60;4.93;;;;;;;13.96;57.80;101367.06;5088359;28;20153;-70
2021/03/15 00:35:17;;;;;;;11.87;4.80;;;;;;;13.69;57.66;101310.41;5081963;28;20075;-69
2021/03/15 00:37:45;;;;;;;9.07;4.80;;;;;;;14.09;57.29;101364.81;5085632;28;20048;-71
2021/03/15 00:40:14;;;;;;;9.77;5.03;;;;;;;14.05;57.18;101352.44;5088984;28;20044;-77
2021/03/15 00:42:45;;;;;;;10.00;6.00;;;;;;;14.19;57.19;101373.22;5088056;28;20036;-75
2021/03/15 00:45:13;;;;;;;12.87;5.77;;;;;;;14.21;57.26;101370.94;5085803;28;20049;-70
2021/03/15 00:47:40;;;;;;;9.17;4.97;;;;;;;13.81;57.09;101299.72;5084741;28;20128;-69
2021/03/15 00:50:14;;;;;;;16.37;5.23;;;;;;;14.17;57.00;101359.44;5086321;28;20063;-68
2021/03/15 00:52:40;;;;;;;10.40;5.30;;;;;;;14.15;56.99;101346.78;5084756;28;20043;-69
2021/03/15 00:55:07;;;;;;;14.30;5.17;;;;;;;14.14;56.89;101350.75;5088878;28;20052;-69
2021/03/15 00:57:34;;;;;;;10.07;4.63;;;;;;;14.05;56.92;101347.69;5084096;28;20159;-68
2021/03/15 01:00:00;;;;;;;9.27;5.10;;;;;;;13.92;57.03;101346.31;5088370;28;20044;-70
2021/03/15 01:02:27;;;;;;;11.20;4.73;;;;;;;13.67;56.86;101295.81;5088875;28;20055;-70
2021/03/15 01:04:54;;;;;;;11.40;4.97;;;;;;;13.84;56.74;101318.78;5087628;28;20055;-67
2021/03/15 01:07:20;;;;;;;14.43;5.90;;;;;;;13.91;56.51;101330.59;5085501;28;20075;-69
2021/03/15 01:09:47;;;;;;;8.03;4.77;;;;;;;13.89;56.56;101324.41;5089015;28;20048;-64
2021/03/15 01:12:13;;;;;;;15.67;7.33;;;;;;;14.00;56.42;101344.88;5085481;28;20036;-67
2021/03/15 01:14:39;;;;;;;13.77;7.27;;;;;;;13.94;56.40;101344.03;5089226;28;20404;-68
2021/03/15 01:17:15;;;;;;;8.60;4.33;;;;;;;13.92;56.36;101337.88;5088305;28;20048;-67
2021/03/15 01:19:41;;;;;;;10.00;4.80;;;;;;;13.76;56.24;101316.56;5078804;28;20127;-67
2021/03/15 01:22:08;;;;;;;11.90;5.07;;;;;;;13.85;56.38;101342.94;5086736;28;20036;-68
2021/03/15 01:24:34;;;;;;;8.13;5.10;;;;;;;13.88;56.11;101336.78;5089941;28;20040;-68
2021/03/15 01:27:00;;;;;;;10.23;4.67;;;;;;;13.96;55.95;101343.78;5079571;28;20051;-68
2021/03/15 01:29:27;;;;;;;8.90;4.30;;;;;;;13.94;56.17;101330.00;5089309;28;20048;-68
2021/03/15 01:31:53;;;;;;;11.70;4.57;;;;;;;13.81;55.98;101319.38;5087619;28;20052;-68
2021/03/15 01:34:20;;;;;;;8.73;4.07;;;;;;;13.83;56.15;101333.97;5083170;28;20047;-65
2021/03/15 01:37:01;;;;;;;14.97;6.80;;;;;;;13.88;56.16;101322.75;5087733;28;20060;-63
2021/03/15 01:39:28;;;;;;;8.33;5.60;;;;;;;13.84;56.07;101318.78;5078799;28;20047;-65
2021/03/15 01:41:54;;;;;;;7.80;4.53;;;;;;;13.78;56.00;101311.53;5082742;28;20396;-64
2021/03/15 01:44:21;;;;;;;12.20;6.37;;;;;;;13.58;56.36;101281.53;5088581;28;20044;-65
2021/03/15 01:46:47;;;;;;;13.60;6.43;;;;;;;13.59;56.84;101294.41;5081900;28;20044;-67
2021/03/15 01:49:15;;;;;;;9.63;4.73;;;;;;;13.69;56.37;101314.06;5085140;28;20063;-72
2021/03/15 01:51:41;;;;;;;11.90;5.37;;;;;;;13.63;56.36;101311.53;5087094;28;20123;-73
2021/03/15 01:54:08;;;;;;;9.20;4.27;;;;;;;13.57;56.15;101307.03;5084374;28;20051;-66
2021/03/15 01:56:36;;;;;;;13.43;6.83;;;;;;;13.70;56.32;101310.09;5081412;28;20386;-68
2021/03/15 01:59:03;;;;;;;10.17;5.03;;;;;;;13.50;56.53;101294.16;5087410;28;20417;-68
2021/03/15 02:01:29;;;;;;;7.30;3.60;;;;;;;13.45;56.42;101299.78;5092784;28;20036;-70
2021/03/15 02:03:56;;;;;;;8.03;4.33;;;;;;;13.39;56.50;101300.88;5091176;28;20059;-80
2021/03/15 02:06:22;;;;;;;8.27;4.30;;;;;;;13.28;56.73;101297.25;5088554;28;20055;-73
2021/03/15 02:08:48;;;;;;;9.57;4.63;;;;;;;13.31;56.65;101298.66;5092953;28;20484;-72
2021/03/15 02:11:39;;;;;;;10.20;3.20;;;;;;;13.32;56.56;101289.09;5091978;28;20040;-79
2021/03/15 02:14:26;;;;;;;6.23;3.80;;;;;;;13.27;56.31;101291.94;5085671;28;20113;-69
2021/03/15 02:17:31;;;;;;;9.87;3.70;;;;;;;13.15;56.31;101274.50;5086956;28;20488;-73
2021/03/15 02:20:04;;;;;;;7.03;3.70;;;;;;;13.29;56.52;101295.28;5088417;28;22823;-68
2021/03/15 02:22:36;;;;;;;8.33;3.90;;;;;;;13.31;56.22;101298.66;5085944;28;20048;-75
2021/03/15 02:25:14;;;;;;;8.27;3.87;;;;;;;13.21;56.20;101293.84;5088250;28;20352;-71
2021/03/15 02:28:03;;;;;;;7.60;3.57;;;;;;;13.16;56.39;101296.66;5090149;28;20488;-70
2021/03/15 02:31:40;;;;;;;5.03;3.27;;;;;;;13.27;56.16;101295.56;5086063;28;20048;-75
2021/03/15 02:34:16;;;;;;;9.10;4.00;;;;;;;13.38;55.99;101288.00;5045261;28;20048;-75
2021/03/15 02:36:45;;;;;;;5.23;3.40;;;;;;;13.35;55.86;101282.94;5059783;28;20540;-78
2021/03/15 02:39:18;;;;;;;7.30;4.15;;;;;;;13.30;56.16;101299.78;5078861;28;20142;-76
2021/03/15 02:41:46;;;;;;;8.87;3.87;;;;;;;13.19;56.21;101284.03;5085956;28;20048;-76
2021/03/15 02:44:15;;;;;;;7.93;3.90;;;;;;;13.07;56.32;101275.06;5086005;28;20075;-69
2021/03/15 02:46:45;;;;;;;5.87;4.00;;;;;;;13.10;56.37;101271.72;5084614;28;20044;-70
2021/03/15 02:49:15;;;;;;;5.80;3.43;;;;;;;13.15;56.26;101278.13;5082924;28;20440;-81
2021/03/15 02:51:43;;;;;;;6.75;3.97;;;;;;;13.10;56.28;101266.94;5089580;28;20051;-82
2021/03/15 02:54:12;;;;;;;11.03;4.10;;;;;;;13.15;56.29;101272.53;5091412;28;20131;-81
2021/03/15 02:56:44;;;;;;;5.63;2.90;;;;;;;13.09;56.25;101268.03;5090697;28;20048;-80
2021/03/15 02:59:13;;;;;;;3.57;1.27;;;;;;;12.92;56.16;101240.31;5094264;28;20047;-81
2021/03/15 03:01:42;;;;;;;7.38;3.25;;;;;;;13.05;56.12;101245.31;5092304;28;20048;-82
2021/03/15 03:04:10;;;;;;;8.20;4.13;;;;;;;13.06;55.97;101268.63;5092461;28;20044;-81
2021/03/15 03:06:39;;;;;;;3.20;2.40;;;;;;;13.03;55.83;101257.97;5089704;28;20332;-81
2021/03/15 03:09:09;;;;;;;7.30;3.33;;;;;;;13.07;55.94;101259.09;5092478;28;20046;-81
2021/03/15 03:11:37;;;;;;;7.70;3.38;;;;;;;12.97;55.60;101259.06;5084298;28;20046;-80
2021/03/15 03:14:05;;;;;;;3.93;2.20;;;;;;;13.08;55.59;101248.69;5089491;28;20533;-74
2021/03/15 03:16:38;;;;;;;7.83;3.03;;;;;;;13.02;55.49;101243.09;5092583;28;20125;-74
2021/03/15 03:19:09;;;;;;;5.33;2.37;;;;;;;13.03;55.25;101230.75;5087760;28;20055;-75
2021/03/15 03:21:40;;;;;;;6.05;2.58;;;;;;;13.03;55.04;101230.75;5091226;28;20055;-74
2021/03/15 03:24:08;;;;;;;3.10;2.20;;;;;;;13.30;54.73;101243.69;5088656;28;20040;-71
2021/03/15 03:26:38;;;;;;;5.30;2.27;;;;;;;13.41;54.54;101247.31;5086489;28;20455;-72
2021/03/15 03:29:07;;;;;;;5.40;2.27;;;;;;;13.41;54.24;101247.31;5085771;28;20385;-73
2021/03/15 03:31:38;;;;;;;4.10;2.30;;;;;;;13.43;54.06;101223.44;5089338;28;20515;-72
2021/03/15 03:34:07;;;;;;;5.13;2.73;;;;;;;13.61;53.47;101233.25;5089900;28;20043;-73
2021/03/15 03:36:34;;;;;;;3.87;2.10;;;;;;;13.62;53.83;101222.84;5087128;28;20139;-67
2021/03/15 03:39:01;;;;;;;8.70;2.83;;;;;;;13.68;53.58;101221.72;5089170;28;20054;-66
2021/03/15 03:41:27;;;;;;;4.67;1.97;;;;;;;13.41;53.54;101175.22;5085473;28;20044;-66
2021/03/15 03:44:06;;;;;;;4.73;2.10;;;;;;;13.76;53.34;101226.75;5088375;28;20074;-67
2021/03/15 03:46:32;;;;;;;4.47;2.30;;;;;;;13.69;53.31;101217.78;5084557;28;20633;-67
2021/03/15 03:49:00;;;;;;;4.27;2.43;;;;;;;13.66;53.47;101215.53;5088611;28;20061;-67
2021/03/15 03:51:33;;;;;;;3.40;1.80;;;;;;;13.71;53.13;101223.97;5089022;28;20078;-68
2021/03/15 03:54:09;;;;;;;3.40;1.93;;;;;;;13.78;53.16;101221.69;5086691;28;20495;-68
2021/03/15 03:56:44;;;;;;;5.93;2.07;;;;;;;13.80;52.94;101215.78;5085132;28;20051;-68
2021/03/15 03:59:16;;;;;;;3.67;2.10;;;;;;;13.75;52.98;101222.25;5088873;28;20120;-70
2021/03/15 04:01:46;;;;;;;4.30;2.10;;;;;;;13.79;52.73;101211.31;5085256;28;20040;-70
2021/03/15 04:04:16;;;;;;;;;;;;;;;13.83;52.70;101213.25;5089235;28;20047;-68
2021/03/15 04:06:44;;;;;;;2.90;1.95;;;;;;;13.83;52.50;101210.44;5087347;28;19927;-68
2021/03/15 04:09:14;;;;;;;3.60;1.60;;;;;;;13.80;52.48;101212.97;5088845;28;20048;-68
2021/03/15 04:11:44;;;;;;;;;;;;;;;13.80;52.18;101222.22;5084934;28;20160;-68
2021/03/15 04:14:16;;;;;;;3.85;1.60;;;;;;;13.73;52.36;101204.84;5087887;28;19946;-68
2021/03/15 04:16:43;;;;;;;0.73;0.63;;;;;;;13.72;52.24;101208.78;5088108;28;20101;-68
2021/03/15 04:19:12;;;;;;;6.23;1.83;;;;;;;13.73;52.02;101213.28;5084355;28;20070;-70
2021/03/15 04:21:40;;;;;;;3.93;1.90;;;;;;;13.70;51.75;101220.28;5088989;28;20052;-68
2021/03/15 04:24:09;;;;;;;3.63;1.10;;;;;;;13.69;51.96;101206.56;5088100;28;20503;-70
2021/03/15 04:26:36;;;;;;;4.10;1.87;;;;;;;13.69;51.82;101203.75;5087571;28;20073;-69
2021/03/15 04:29:05;;;;;;;3.87;1.90;;;;;;;13.81;51.62;101214.66;5088391;28;20040;-69
2021/03/15 04:31:33;;;;;;;4.50;1.80;;;;;;;13.81;51.39;101204.28;5086720;28;20043;-68
2021/03/15 04:34:00;;;;;;;3.77;1.77;;;;;;;13.84;51.50;101209.28;5089345;28;20048;-67
2021/03/15 04:36:27;;;;;;;4.13;2.13;;;;;;;13.78;51.56;101204.84;5082295;28;20157;-69
2021/03/15 04:38:54;;;;;;;3.67;2.07;;;;;;;13.76;51.41;101198.66;5088415;28;20055;-70
2021/03/15 04:41:21;;;;;;;5.47;1.50;;;;;;;13.65;51.37;101200.69;5081573;28;20039;-69
2021/03/15 04:43:51;;;;;;;4.53;2.07;;;;;;;13.66;51.58;101209.94;5089397;28;20135;-68
2021/03/15 04:46:17;;;;;;;3.90;1.60;;;;;;;13.63;51.58;101222.56;5077556;28;20553;-68
2021/03/15 04:48:45;;;;;;;5.13;2.37;;;;;;;13.56;51.44;101215.56;5089142;28;20476;-68
2021/03/15 04:51:12;;;;;;;3.83;1.80;;;;;;;13.47;51.60;101218.13;5088969;28;20044;-67
2021/03/15 04:53:41;;;;;;;2.57;1.77;;;;;;;13.45;51.99;101221.22;5087087;28;20040;-68
2021/03/15 04:56:12;;;;;;;3.30;1.90;;;;;;;13.37;52.08;101206.94;5085659;28;20041;-68
2021/03/15 04:58:40;;;;;;;3.97;1.70;;;;;;;13.43;52.04;101217.84;5088513;28;20541;-69
2021/03/15 05:01:09;;;;;;;3.70;2.23;;;;;;;13.22;51.92;101193.72;5082255;28;20044;-69
2021/03/15 05:03:38;;;;;;;4.03;2.20;;;;;;;13.27;51.88;101200.22;5086988;28;20048;-68
2021/03/15 05:06:07;;;;;;;2.83;1.47;;;;;;;13.28;51.93;101209.47;5082567;28;20055;-67
2021/03/15 05:08:39;;;;;;;4.90;1.67;;;;;;;13.35;51.97;101212.81;5081805;28;20040;-69
2021/03/15 05:11:08;;;;;;;5.70;1.83;;;;;;;13.28;51.70;101195.44;5077422;28;20041;-68
2021/03/15 05:13:37;;;;;;;2.70;2.07;;;;;;;13.31;51.64;101219.28;5078980;28;20048;-69
2021/03/15 05:16:05;;;;;;;2.90;0.93;;;;;;;13.34;51.58;101213.94;5084258;28;20049;-69
2021/03/15 05:18:32;;;;;;;6.00;1.60;;;;;;;13.34;51.52;101221.53;5086734;28;20047;-69
2021/03/15 05:20:59;;;;;;;6.73;1.47;;;;;;;13.33;51.47;101206.63;5090396;28;20400;-69
2021/03/15 05:23:27;;;;;;;4.50;2.00;;;;;;;13.43;51.10;101214.19;5086868;28;20040;-68
2021/03/15 05:25:55;;;;;;;4.07;1.60;;;;;;;13.39;50.88;101213.91;5084593;28;20505;-69
2021/03/15 05:28:22;;;;;;;1.70;1.13;;;;;;;13.47;50.81;101218.13;5085857;28;20049;-70
2021/03/15 05:30:50;;;;;;;5.80;1.83;;;;;;;13.57;50.68;101215.28;5084032;28;20425;-70
2021/03/15 05:33:19;;;;;;;2.60;1.50;;;;;;;13.58;50.46;101228.19;5087462;28;20139;-71
2021/03/15 05:35:47;;;;;;;3.20;1.65;;;;;;;13.65;50.30;101234.34;5083524;28;20047;-70
2021/03/15 05:38:14;;;;;;;2.37;1.57;;;;;;;13.70;50.20;101222.25;5080081;28;20074;-69
2021/03/15 05:40:43;;;;;;;3.60;2.23;;;;;;;13.77;50.30;101233.19;5084235;28;20040;-73
2021/03/15 05:43:24;;;;;;;2.90;1.80;;;;;;;13.76;50.63;101237.97;5086404;28;20044;-74
2021/03/15 05:46:38;;;;;;;5.13;2.63;;;;;;;13.68;50.99;101242.22;5088910;28;20047;-71
2021/03/15 05:49:28;;;;;;;5.53;3.07;;;;;;;13.51;51.28;101236.91;5083731;28;20056;-70
2021/03/15 05:52:23;;;;;;;4.23;2.53;;;;;;;13.39;51.32;101236.38;5088511;28;20044;-70
2021/03/15 05:55:38;;;;;;;4.67;2.13;;;;;;;13.40;51.44;101242.81;5086871;28;20040;-70
2021/03/15 05:58:16;;;;;;;2.97;1.80;;;;;;;13.35;51.27;101251.25;5080270;28;20052;-71
2021/03/15 06:01:24;;;;;;;2.73;1.73;;;;;;;13.31;51.29;101241.72;5086513;28;20127;-77
2021/03/15 06:04:30;;;;;;;3.47;2.03;;;;;;;13.30;51.25;101245.63;5069968;28;20051;-74
2021/03/15 06:07:00;;;;;;;3.83;1.87;;;;;;;13.28;51.29;101245.91;5085894;28;20051;-74
2021/03/15 06:09:32;;;;;;;3.67;1.98;;;;;;;13.31;50.90;101252.94;5086047;28;20416;-72
2021/03/15 06:12:04;;;;;;;2.77;1.30;;;;;;;13.30;50.82;101252.09;5082712;28;20135;-73
2021/03/15 06:14:33;;;;;;;3.40;1.63;;;;;;;13.27;50.65;101238.63;5082979;28;20407;-73
2021/03/15 06:16:59;;;;;;;2.80;1.53;;;;;;;13.32;50.61;101247.03;5087792;28;20055;-76
2021/03/15 06:19:26;;;;;;;4.77;2.10;;;;;;;13.23;50.66;101234.66;5086778;28;20045;-72
2021/03/15 06:21:55;;;;;;;3.10;1.60;;;;;;;13.31;50.63;101253.78;5083654;28;20052;-71
2021/03/15 06:24:21;;;;;;;4.33;2.03;;;;;;;13.33;50.42;101262.72;5084708;28;20048;-71
2021/03/15 06:26:50;;;;;;;2.37;1.60;;;;;;;13.22;50.55;101261.88;5087053;28;20048;-71
2021/03/15 06:29:18;;;;;;;2.57;1.73;;;;;;;13.22;50.68;101267.47;5085408;28;20036;-70
2021/03/15 06:31:50;;;;;;;0.93;0.70;;;;;;;13.08;50.60;101249.53;5081554;28;20512;-70
2021/03/15 06:34:21;;;;;;;2.53;1.20;;;;;;;13.03;51.17;101258.81;5083055;28;20488;-66
2021/03/15 06:36:48;;;;;;;1.57;1.10;;;;;;;12.82;51.45;101245.91;5085430;28;20058;-71
2021/03/15 06:39:15;;;;;;;1.10;1.00;;;;;;;12.93;51.18;101256.00;5081085;28;20105;-63
2021/03/15 06:41:43;;;;;;;3.03;1.60;;;;;;;12.96;51.19;101285.44;5080980;28;20074;-63
2021/03/15 06:44:10;;;;;;;1.97;1.57;;;;;;;12.89;51.37;101274.50;5085278;28;20083;-60
2021/03/15 06:46:40;;;;;;;3.53;1.50;;;;;;;12.77;51.28;101268.31;5084135;28;20039;-67
2021/03/15 06:49:07;;;;;;;1.17;0.82;;;;;;;12.91;51.42;101283.44;5086643;28;20399;-62
2021/03/15 06:52:03;;;;;;;1.13;1.03;;;;;;;12.88;51.16;101289.59;5083097;28;20507;-63
2021/03/15 06:54:30;;;;;;;1.63;1.00;;;;;;;12.89;51.16;101290.44;5084101;28;20044;-62
2021/03/15 06:57:19;;;;;;;3.53;2.00;;;;;;;12.89;51.07;101284.84;5088855;28;20044;-61
2021/03/15 06:59:51;;;;;;;1.70;0.67;;;;;;;12.95;51.03;101295.78;5087485;28;20036;-62
2021/03/15 07:02:21;;;;;;;3.10;1.50;;;;;;;12.98;50.82;101284.03;5088782;28;20097;-63
2021/03/15 07:04:48;;;;;;;4.47;1.47;;;;;;;13.04;50.78;101294.13;5088156;28;20067;-62
2021/03/15 07:07:26;;;;;;;3.73;1.23;;;;;;;13.09;50.69;101292.44;5087203;28;20164;-61
2021/03/15 07:09:54;;;;;;;2.40;1.47;;;;;;;13.02;50.68;101282.38;5083132;28;20138;-61
2021/03/15 07:12:25;;;;;;;2.83;1.47;;;;;;;13.15;50.35;101288.53;5087359;28;20411;-62
2021/03/15 07:15:05;;;;;;;4.40;1.93;;;;;;;13.30;50.34;101296.97;5084556;28;20143;-62
2021/03/15 07:17:32;;;;;;;1.30;0.70;;;;;;;13.29;49.93;101300.88;5081724;28;20075;-63
2021/03/15 07:19:59;;;;;;;2.33;1.30;;;;;;;13.65;49.58;101306.50;5083615;28;20051;-62
2021/03/15 07:22:28;;;;;;;0.57;0.57;;;;;;;13.71;49.14;101306.19;5085087;28;20489;-62
2021/03/15 07:25:10;;;;;;;0.80;0.80;;;;;;;13.80;48.68;101309.25;5086359;28;20055;-62
2021/03/15 07:27:39;;;;;;;0.90;0.77;;;;;;;13.77;48.59;101295.78;5085822;28;20476;-61
2021/03/15 07:30:27;;;;;;;3.03;1.73;;;;;;;13.95;48.13;101314.84;5090140;28;20051;-61
2021/03/15 07:33:05;;;;;;;2.67;0.93;;;;;;;13.90;47.60;101309.22;5077516;28;20072;-62
2021/03/15 07:35:31;;;;;;;1.50;1.23;;;;;;;13.99;47.66;101332.81;5082533;28;20068;-62
2021/03/15 07:37:58;;;;;;;1.30;1.00;;;;;;;14.18;47.29;101307.75;5086517;28;20105;-61
2021/03/15 07:40:40;;;;;;;3.30;2.13;;;;;;;14.54;46.92;101337.72;5087065;28;20040;-61
2021/03/15 07:43:11;;;;;;;4.90;2.13;;;;;;;14.54;46.49;101330.13;5086933;28;20515;-62
2021/03/15 07:45:42;;;;;;;7.43;1.80;;;;;;;14.93;46.23;101340.56;5087046;28;20211;-62
2021/03/15 07:48:24;;;;;;;1.13;0.93;;;;;;;14.86;45.28;101345.69;5081286;28;20052;-61
2021/03/15 07:51:02;;;;;;;8.40;1.53;;;;;;;14.97;45.12;101346.47;5084507;28;20126;-61
2021/03/15 07:53:35;;;;;;;2.27;1.40;;;;;;;15.20;44.33;101359.81;5082009;28;20415;-61
2021/03/15 07:56:03;;;;;;;0.63;0.63;;;;;;;15.36;44.26;101364.19;5083917;28;20044;-62
2021/03/15 07:58:32;;;;;;;2.57;1.07;;;;;;;15.36;43.67;101360.56;5082809;28;20067;-61
2021/03/15 08:01:04;;;;;;;0.82;0.82;;;;;;;15.29;43.56;101349.63;5088758;28;20044;-60
2021/03/15 08:03:31;;;;;;;1.53;0.90;;;;;;;15.69;43.38;101358.91;5086527;28;20036;-61
2021/03/15 08:06:00;;;;;;;1.50;1.13;;;;;;;15.96;42.59;101363.97;5086276;28;20522;-60
2021/03/15 08:08:28;;;;;;;2.63;0.80;;;;;;;15.86;42.35;101370.56;5082949;28;20049;-60
2021/03/15 08:10:56;;;;;;;1.40;1.00;;;;;;;16.09;42.27;101363.28;5084290;28;20148;-61
2021/03/15 08:13:28;;;;;;;4.10;1.37;;;;;;;16.18;41.26;101366.28;5084279;28;20093;-63
2021/03/15 08:15:59;;;;;;;2.07;1.07;;;;;;;16.13;41.60;101369.16;5085442;28;20040;-61
2021/03/15 08:18:27;;;;;;;1.47;1.13;;;;;;;16.43;40.88;101372.78;5091439;28;20532;-61
2021/03/15 08:21:05;;;;;;;4.10;1.57;;;;;;;16.48;40.69;101373.56;5076054;28;20045;-60
2021/03/15 08:23:37;;;;;;;2.37;1.40;;;;;;;16.89;40.58;101375.03;5079304;28;20036;-61
2021/03/15 08:26:08;;;;;;;0.60;0.60;;;;;;;17.19;39.97;101368.09;5091430;28;20051;-61
2021/03/15 08:28:38;;;;;;;2.53;1.50;;;;;;;17.01;39.50;101376.25;5091367;28;20040;-60
2021/03/15 08:31:17;;;;;;;3.22;0.90;;;;;;;17.04;39.82;101383.28;5084455;28;20051;-61
2021/03/15 08:33:45;;;;;;;6.65;1.40;;;;;;;17.32;39.56;101372.16;5079600;28;20044;-62
2021/03/15 08:36:13;;;;;;;1.35;0.85;;;;;;;17.61;39.28;101377.63;5078662;28;20143;-61
2021/03/15 08:38:40;;;;;;;3.83;1.35;;;;;;;17.72;38.74;101382.78;5085017;28;20067;-61
2021/03/15 08:41:21;;;;;;;1.52;0.85;;;;;;;17.83;38.13;101355.22;5086269;28;20048;-62
2021/03/15 08:43:49;;;;;;;3.58;1.48;;;;;;;17.66;37.70;101367.06;5085470;28;20446;-61
2021/03/15 08:46:19;;;;;;;2.28;1.30;;;;;;;17.67;37.80;101374.38;5089180;28;20050;-60
2021/03/15 08:48:45;;;;;;;4.63;1.13;;;;;;;17.96;37.74;101377.03;5079402;28;20409;-61
2021/03/15 08:51:14;;;;;;;4.35;1.40;;;;;;;18.50;37.70;101374.59;5083120;28;20048;-61
2021/03/15 08:53:40;;;;;;;3.10;1.23;;;;;;;18.66;36.86;101387.22;5088919;28;20459;-60
2021/03/15 08:56:19;;;;;;;0.80;0.80;;;;;;;18.73;36.62;101386.84;5088909;28;20581;-61
2021/03/15 08:58:52;;;;;;;8.13;1.48;;;;;;;18.69;36.27;101395.09;5083498;28;20713;-61
2021/03/15 09:01:45;;;;;;;7.47;1.15;;;;;;;18.49;35.83;101381.38;5081098;28;20074;-61
2021/03/15 09:04:29;;;;;;;5.25;1.13;;;;;;;18.31;36.92;101385.13;5080525;28;20055;-60
2021/03/15 09:06:55;;;;;;;4.20;1.60;;;;;;;18.69;36.06;101392.25;5085014;28;20155;-61
2021/03/15 09:09:25;;;;;;;1.35;1.08;;;;;;;18.74;36.07;101390.53;5081800;28;20036;-61
2021/03/15 09:11:54;;;;;;;3.42;1.67;;;;;;;19.03;35.80;101405.16;5080138;28;20058;-61
2021/03/15 09:14:22;;;;;;;1.73;1.42;;;;;;;19.22;35.65;101396.53;5082279;28;20047;-59
2021/03/15 09:16:57;;;;;;;2.42;1.65;;;;;;;19.33;35.12;101403.63;5081085;28;20054;-59
2021/03/15 09:19:31;;;;;;;4.63;1.77;;;;;;;19.82;35.10;101403.88;5084466;28;20408;-59
2021/03/15 09:22:04;;;;;;;7.60;1.98;;;;;;;20.41;34.93;101401.75;5078157;28;20055;-60
2021/03/15 09:25:06;;;;;;;4.32;1.65;;;;;;;20.74;34.64;101393.72;5077531;28;20048;-60
2021/03/15 09:27:42;;;;;;;8.63;2.55;;;;;;;20.96;34.04;101387.09;5066582;28;20059;-62
2021/03/15 09:30:30;;;;;;;6.85;2.50;;;;;;;21.71;33.89;101389.84;5086582;28;20125;-62
2021/03/15 09:32:58;;;;;;;6.68;2.10;;;;;;;22.01;32.61;101394.47;5083723;28;20090;-62
2021/03/15 09:35:32;;;;;;;3.50;1.63;;;;;;;22.00;32.86;101412.72;5077179;28;20477;-62
2021/03/15 09:38:02;;;;;;;3.55;2.25;;;;;;;21.68;31.84;101397.03;5082266;28;20064;-61
2021/03/15 09:40:46;;;;;;;3.83;2.35;;;;;;;21.57;31.75;101397.69;5082750;28;20068;-61
2021/03/15 09:43:33;;;;;;;4.50;2.05;;;;;;;21.24;31.51;101392.50;5082140;28;20175;-61
2021/03/15 09:46:03;;;;;;;3.28;2.25;;;;;;;21.14;31.96;101384.28;5075046;28;20105;-66
2021/03/15 09:48:32;;;;;;;5.78;3.13;;;;;;;21.05;31.71;101402.13;5078139;28;20044;-67
2021/03/15 09:51:03;;;;;;;8.73;3.08;;;;;;;21.34;31.89;101402.69;5074963;28;20037;-66
2021/03/15 09:53:33;;;;;;;7.18;2.60;;;;;;;21.49;31.73;101391.69;5083835;28;20040;-60
2021/03/15 09:56:03;;;;;;;4.55;2.42;;;;;;;21.27;31.27;101420.25;5083023;28;20040;-60
2021/03/15 09:58:29;;;;;;;10.63;2.60;;;;;;;21.40;31.75;101429.78;5080953;28;20118;-60
2021/03/15 10:00:56;;;;;;;5.35;2.17;;;;;;;21.60;31.61;101416.94;5085153;28;20048;-60
2021/03/15 10:03:31;;;;;;;7.45;2.40;;;;;;;22.03;31.33;101421.75;5082395;28;20572;-61
2021/03/15 10:05:59;;;;;;;4.05;1.83;;;;;;;22.34;31.49;101418.69;5078441;28;20052;-63
2021/03/15 10:08:26;;;;;;;4.05;2.08;;;;;;;22.82;30.99;101424.00;5077455;28;20088;-60
2021/03/15 10:10:53;;;;;;;3.70;2.38;;;;;;;23.11;30.43;101413.81;5085652;28;20081;-60
2021/03/15 10:13:19;;;;;;;4.28;2.38;;;;;;;23.59;30.50;101415.31;5088186;28;20533;-60
2021/03/15 10:15:46;;;;;;;6.72;1.95;;;;;;;23.56;29.66;101431.13;5077711;28;20044;-60
2021/03/15 10:18:31;;;;;;;5.60;2.83;;;;;;;23.91;29.92;101412.91;5088496;28;20050;-61
2021/03/15 10:20:59;;;;;;;4.05;2.15;;;;;;;24.42;29.52;101433.53;5083193;28;20052;-61
2021/03/15 10:23:33;;;;;;;4.25;2.35;;;;;;;24.72;29.24;101414.19;5088630;28;20081;-61
2021/03/15 10:26:03;;;;;;;3.30;2.03;;;;;;;24.85;28.86;101397.84;5090253;28;20177;-60
2021/03/15 10:28:32;;;;;;;6.70;2.95;;;;;;;24.78;29.03;101407.84;5087170;28;20044;-60
2021/03/15 10:31:20;;;;;;;3.85;2.78;;;;;;;25.03;28.99;101420.13;5085406;28;20389;-59
2021/03/15 10:33:48;;;;;;;4.30;1.73;;;;;;;25.29;28.42;101411.19;5087765;28;20548;-60
2021/03/15 10:36:20;;;;;;;5.25;2.60;;;;;;;25.07;28.47;101400.25;5081444;28;20484;-60
2021/03/15 10:38:47;;;;;;;4.78;2.17;;;;;;;25.34;28.67;101426.44;5090128;28;20130;-58
2021/03/15 10:41:15;;;;;;;2.05;1.60;;;;;;;25.03;28.52;101420.13;5084872;28;20412;-60
2021/03/15 10:43:43;;;;;;;6.03;2.03;;;;;;;24.58;28.40;101386.81;5083189;28;20067;-58
2021/03/15 10:46:21;;;;;;;8.30;2.83;;;;;;;24.36;28.48;101410.88;5085825;28;20087;-60
2021/03/15 10:48:49;;;;;;;3.58;2.42;;;;;;;24.51;28.83;101397.13;5085374;28;20056;-58
2021/03/15 10:51:17;;;;;;;8.00;3.03;;;;;;;24.85;28.78;101397.84;5084132;28;20048;-59
2021/03/15 10:53:53;;;;;;;3.45;2.22;;;;;;;25.49;28.66;101397.09;5087517;28;20048;-59
2021/03/15 10:56:21;;;;;;;6.03;2.33;;;;;;;25.29;27.59;101396.88;5077754;28;20507;-59
2021/03/15 10:58:48;;;;;;;7.25;1.90;;;;;;;24.93;27.13;101377.75;5089218;28;20091;-58
2021/03/15 11:01:25;;;;;;;3.60;1.88;;;;;;;25.04;27.42;101398.09;5086394;28;20055;-60
2021/03/15 11:03:54;;;;;;;2.47;1.63;;;;;;;24.53;26.44;101395.59;5088369;28;20187;-58
2021/03/15 11:06:27;;;;;;;4.22;2.20;;;;;;;24.34;27.61;101393.28;5090325;28;20040;-58
2021/03/15 11:08:56;;;;;;;3.40;2.10;;;;;;;24.33;28.15;101391.59;5087480;28;20048;-60
2021/03/15 11:11:25;;;;;;;7.55;2.17;;;;;;;24.27;27.88;101380.75;5085283;28;20044;-59
2021/03/15 11:13:54;;;;;;;3.22;1.70;;;;;;;24.20;27.57;101380.50;5086126;28;20052;-59
2021/03/15 11:16:32;;;;;;;4.50;2.13;;;;;;;24.56;29.35;101368.34;5088318;28;20040;-58
2021/03/15 11:19:08;;;;;;;5.47;2.20;;;;;;;25.14;28.69;101382.53;5083890;28;20044;-59
2021/03/15 11:21:37;;;;;;;4.38;2.40;;;;;;;25.36;28.37;101381.16;5086924;28;20127;-59
2021/03/15 11:24:05;;;;;;;5.25;1.98;;;;;;;25.74;27.36;101370.06;5087892;28;20123;-58
2021/03/15 11:26:47;;;;;;;4.15;2.20;;;;;;;26.51;27.23;101377.53;5082405;28;20044;-59
2021/03/15 11:29:22;;;;;;;10.55;2.42;;;;;;;27.25;25.65;101385.47;5086273;28;20413;-60
2021/03/15 11:31:49;;;;;;;3.10;1.95;;;;;;;26.76;25.64;101372.44;5084123;28;20144;-60
2021/03/15 11:34:22;;;;;;;3.17;1.90;;;;;;;26.49;25.70;101348.41;5088606;28;20399;-58
2021/03/15 11:36:49;;;;;;;5.43;2.85;;;;;;;26.47;25.85;101353.69;5086478;28;20056;-60
2021/03/15 11:39:16;;;;;;;6.22;2.38;;;;;;;26.21;25.50;101343.56;5088184;28;20055;-60
2021/03/15 11:41:45;;;;;;;4.63;2.20;;;;;;;26.00;24.67;101348.72;5085847;28;20461;-59
2021/03/15 11:44:13;;;;;;;1.98;1.58;;;;;;;25.48;25.01;101372.56;5086827;28;20513;-59